Terminal Aerodrome Forecast
Issued by NWS

Home | Current Version | Previous Version | Graphics & Text | Print | Product List | Glossary On
Versions: 1 2 3 4 5 6 7 8 9 10 11 12
696
FTUS43 KICT 052335
TAFRSL
TAF
KRSL 052335Z 0600/0624 31007KT P6SM SCT120 BKN200
     FM061600 26010KT P6SM SKC=

USA.gov is the U.S. government's official web portal to all federal, state and local government web resources and services.